Language selection

My Weather Profile Weather Topics  | 

Bowie - northern half: Past 24 Hour Conditions

 

West Sea Otter - 46204

07:00 PM PDT 09 May 2021Buoy position: 51.23N 128.46W
Disclaimer

This table is a summary of hourly weather conditions for the past 24 hours.
Please note that these observations might not always be representative of weather conditions over their associated marine area.

Date / Time
(PDT)
Wind(knots) Wave height(m) Wave period(s) Pressure(kPa) Air tempC) Water tempC)
09 May 2021
19:00 NW 12 gust 13 2.0 10.0 102.9 N/A 9
18:00 NNW 10 gust 12 2.0 10.0 102.9 N/A 9
17:00 NNW 10 gust 12 1.9 9.0 102.9 N/A 9
16:00 NNW 10 gust 12 1.8 10.0 102.9 N/A 9
15:00 NNW 10 gust 12 1.8 10.0 102.9 N/A 9
14:00 NNW 10 gust 12 1.8 10.0 102.8 N/A 9
13:00 NW 10 gust 12 2.0 10.0 102.8 N/A 9
12:00 NW 12 gust 12 1.9 8.0 102.8 N/A 9
11:00 NW 12 gust 13 2.1 9.0 102.8 N/A 9
10:00 NW 12 gust 13 2.0 8.0 102.8 N/A 9
9:00 WNW 10 gust 12 1.7 8.0 102.8 N/A 9
8:00 WNW 12 gust 13 1.4 8.0 102.8 N/A 9
7:00 WNW 10 gust 12 1.4 9.0 102.7 N/A 9
6:00 W 10 gust 12 1.3 9.0 102.7 N/A 9
5:00 WNW 12 gust 16 1.1 7.0 102.7 N/A 9
4:00 WNW 12 gust 16 1.1 8.0 102.6 N/A 9
3:00 W 8 gust 10 1.1 8.0 102.6 N/A 9
2:00 W 8 gust 10 1.2 6.0 102.6 N/A 9
1:00 WNW 10 gust 12 1.4 8.0 102.6 N/A 9
0:00 W 8 gust 10 1.5 5.0 102.5 N/A 9
08 May 2021
23:00 W 6 gust 6 1.6 5.0 102.5 N/A 9
22:00 W 8 gust 10 1.8 6.0 102.5 N/A 9
21:00 SSE 12 gust 19 2.1 5.0 102.4 N/A 9
20:00 SE 19 gust 23 2.1 6.0 102.3 N/A 9
19:00 SE 22 gust 25 2.1 6.0 102.4 N/A 9

Zoom-in to make a selection

Map of Pacific - North Coast marine weather areas Middle Nomad - 46004 South Nomad - 46036 Dixon Entrance Central - 46145 South Moresby - 46147 Nanakwa Shoal - 46181 North Hecate Strait - 46183 North Nomad - 46184 South Hecate Strait - 46185 West Sea Otter - 46204 West Dixon Entrance - 46205 East Dellwood - 46207 West Moresby - 46208 Sartine Island Cape St.James Kindakun Rocks Langara Island Masset Municipal Airport Rose Spit Sandspit Airport Bella Bella Airport Bella Coola Airport Bonilla Island Cathedral Point Cumshewa Island Grey Islet Holland Rock Lucy Islands Lightstation Prince Rupert Airport
Legend:
buoy Buoy
land station Land Station

Pacific - North Coast Area

Another Region

What we are doing

Date modified: